createdAt,value
2019-04-14T00:01:21.840Z,25.60
2019-04-14T00:06:41.903Z,21.65
2019-04-14T00:09:12.411Z,22.82
2019-04-14T00:11:41.473Z,24.67
2019-04-14T00:14:07.631Z,22.90
2019-04-14T00:16:33.905Z,22.70
2019-04-14T00:18:59.983Z,23.02
2019-04-14T00:21:26.161Z,24.43
2019-04-14T00:23:52.309Z,21.97
2019-04-14T00:26:24.975Z,23.15
2019-04-14T00:28:51.290Z,21.87
2019-04-14T00:31:17.523Z,22.60
2019-04-14T00:33:45.289Z,21.45
2019-04-14T00:36:22.267Z,20.82
2019-04-14T00:38:50.332Z,21.15
2019-04-14T00:41:18.322Z,22.07
2019-04-14T00:43:48.896Z,21.12
2019-04-14T00:46:34.184Z,22.55
2019-04-14T00:49:02.722Z,20.10
2019-04-14T00:51:29.054Z,21.15
2019-04-14T00:53:55.753Z,19.37
2019-04-14T00:56:21.949Z,21.48
2019-04-14T00:58:47.997Z,20.70
2019-04-14T01:01:14.055Z,20.20
2019-04-14T01:03:40.208Z,21.15
2019-04-14T01:06:07.546Z,21.57
2019-04-14T01:08:33.881Z,20.25
2019-04-14T01:11:00.992Z,18.90
2019-04-14T01:13:27.400Z,19.75
2019-04-14T01:16:00.566Z,19.15
2019-04-14T01:18:21.620Z,18.85
2019-04-14T01:20:47.784Z,19.37
2019-04-14T01:23:15.035Z,18.00
2019-04-14T01:25:41.295Z,111.30
2019-04-14T01:28:07.442Z,23.20
2019-04-14T01:30:33.601Z,18.82
2019-04-14T01:33:01.010Z,18.30
2019-04-14T01:35:27.313Z,19.23
2019-04-14T01:37:53.472Z,25.50
2019-04-14T01:40:20.699Z,59.38
2019-04-14T01:42:46.974Z,20.75
2019-04-14T01:45:16.350Z,21.42
2019-04-14T01:47:42.594Z,23.15
2019-04-14T01:50:08.739Z,18.77
2019-04-14T01:52:36.701Z,19.92
2019-04-14T01:55:07.008Z,20.48
2019-04-14T01:57:35.128Z,20.37
2019-04-14T02:00:20.772Z,18.60
2019-04-14T02:02:47.296Z,20.50
2019-04-14T02:05:14.566Z,21.42
2019-04-14T02:07:40.829Z,24.70
2019-04-14T02:10:07.036Z,25.55
2019-04-14T02:12:34.435Z,22.10
2019-04-14T02:15:00.642Z,19.42
2019-04-14T02:17:26.802Z,20.50
2019-04-14T02:19:52.967Z,19.70
2019-04-14T02:22:20.199Z,17.00
2019-04-14T02:24:46.490Z,18.40
2019-04-14T02:27:12.647Z,17.40
2019-04-14T02:29:38.693Z,18.00
2019-04-14T02:32:35.435Z,18.30
2019-04-14T02:35:00.192Z,18.37
2019-04-14T02:37:44.721Z,17.77
2019-04-14T02:40:08.188Z,16.52
2019-04-14T02:44:52.814Z,16.67
2019-04-14T02:49:50.759Z,16.10
2019-04-14T02:54:50.420Z,17.32
2019-04-14T02:57:19.066Z,16.70
2019-04-14T03:02:22.927Z,16.55
2019-04-14T03:04:37.468Z,17.32
2019-04-14T03:07:05.216Z,16.55
2019-04-14T03:09:36.358Z,17.50
2019-04-14T03:12:03.022Z,17.23
2019-04-14T03:14:30.974Z,16.95
2019-04-14T03:17:21.912Z,16.65
2019-04-14T03:20:07.162Z,18.17
2019-04-14T03:28:14.394Z,16.35
2019-04-14T03:33:18.019Z,18.23
2019-04-14T03:35:58.113Z,16.25
2019-04-14T03:37:56.544Z,17.00
2019-04-14T03:40:28.523Z,16.42
2019-04-14T03:42:59.096Z,16.32
2019-04-14T03:45:26.137Z,16.45
2019-04-14T03:47:44.452Z,16.85
2019-04-14T03:50:16.064Z,17.40
2019-04-14T03:55:01.471Z,16.50
2019-04-14T03:57:12.595Z,15.43
2019-04-14T03:59:39.233Z,16.70
2019-04-14T04:02:05.597Z,16.27
2019-04-14T04:04:31.759Z,17.05
2019-04-14T04:06:57.895Z,16.50
2019-04-14T04:09:25.849Z,16.85
2019-04-14T04:11:52.068Z,17.75
2019-04-14T04:14:18.283Z,16.35
2019-04-14T04:16:59.465Z,16.40
2019-04-14T04:19:30.143Z,19.75
2019-04-14T04:22:04.237Z,26.40
2019-04-14T04:24:35.171Z,27.70
2019-04-14T04:27:15.805Z,29.12
2019-04-14T04:29:46.461Z,29.92
2019-04-14T04:32:32.612Z,29.92
2019-04-14T04:35:04.304Z,30.30
2019-04-14T04:37:45.459Z,27.55
2019-04-14T04:40:13.628Z,26.90
2019-04-14T04:42:39.685Z,27.15
2019-04-14T04:45:06.127Z,26.50
2019-04-14T04:47:32.119Z,26.48
2019-04-14T04:49:58.259Z,27.15
2019-04-14T04:52:24.315Z,27.02
2019-04-14T04:54:51.559Z,27.77
2019-04-14T04:57:17.917Z,27.22
2019-04-14T04:59:45.236Z,24.77
2019-04-14T05:02:11.495Z,23.15
2019-04-14T05:04:37.557Z,25.72
2019-04-14T05:07:03.781Z,22.82
2019-04-14T05:18:00.487Z,23.40
2019-04-14T05:20:27.105Z,25.68
2019-04-14T05:22:53.313Z,25.00
2019-04-14T05:25:19.503Z,25.92
2019-04-14T05:27:45.650Z,20.30
2019-04-14T05:30:11.858Z,20.27
2019-04-14T05:32:39.223Z,17.15
2019-04-14T05:35:05.808Z,18.95
2019-04-14T05:37:31.894Z,20.23
2019-04-14T05:39:59.292Z,23.75
2019-04-14T05:42:27.156Z,22.80
2019-04-14T05:44:53.811Z,19.87
2019-04-14T05:47:20.087Z,20.77
2019-04-14T05:49:50.081Z,18.85
2019-04-14T05:52:14.306Z,18.07
2019-04-14T05:54:40.539Z,17.65
2019-04-14T05:57:06.688Z,18.32
2019-04-14T05:59:33.356Z,19.77
2019-04-14T06:01:59.484Z,22.17
2019-04-14T06:04:26.455Z,20.02
2019-04-14T06:06:52.726Z,21.37
2019-04-14T06:09:18.883Z,23.38
2019-04-14T06:11:45.044Z,20.48
2019-04-14T06:14:11.092Z,25.95
2019-04-14T06:16:37.244Z,18.42
2019-04-14T06:19:03.407Z,21.02
2019-04-14T06:21:29.565Z,19.67
2019-04-14T06:23:55.775Z,20.02
2019-04-14T06:26:21.908Z,19.35
2019-04-14T06:28:48.080Z,18.10
2019-04-14T06:31:32.611Z,18.73
2019-04-14T06:34:00.748Z,17.98
2019-04-14T06:36:34.544Z,19.80
2019-04-14T06:39:17.721Z,18.25
2019-04-14T06:41:43.833Z,23.25
2019-04-14T06:44:09.999Z,22.15
2019-04-14T06:46:36.145Z,20.60
2019-04-14T06:49:02.521Z,19.70
2019-04-14T06:51:28.673Z,19.85
2019-04-14T06:53:54.827Z,19.92
2019-04-14T06:56:20.987Z,19.60
2019-04-14T06:58:47.182Z,20.77
2019-04-14T07:01:13.328Z,20.30
2019-04-14T07:03:39.542Z,19.15
2019-04-14T07:06:05.753Z,20.82
2019-04-14T07:08:31.889Z,18.77
2019-04-14T07:10:58.039Z,21.52
2019-04-14T07:13:24.187Z,19.07
2019-04-14T07:15:50.335Z,16.82
2019-04-14T07:18:16.379Z,20.35
2019-04-14T07:20:42.425Z,20.60
2019-04-14T07:23:08.566Z,17.15
2019-04-14T07:25:34.711Z,14.43
2019-04-14T07:28:00.875Z,14.83
2019-04-14T07:30:45.379Z,13.10
2019-04-14T07:33:29.838Z,11.35
2019-04-14T07:36:00.432Z,11.68
2019-04-14T07:38:28.482Z,12.07
2019-04-14T07:41:02.155Z,11.35
2019-04-14T07:43:32.764Z,12.53
2019-04-14T07:46:03.488Z,11.22
2019-04-14T07:51:21.322Z,10.28
2019-04-14T07:53:49.216Z,11.03
2019-04-14T07:56:34.064Z,9.70
2019-04-14T07:59:05.247Z,8.90
2019-04-14T08:01:39.208Z,9.60
2019-04-14T08:04:07.253Z,9.15
2019-04-14T08:06:33.576Z,10.85
2019-04-14T08:08:59.746Z,9.50
2019-04-14T08:11:25.877Z,9.05
2019-04-14T08:13:52.063Z,8.93
2019-04-14T08:16:18.197Z,10.53
2019-04-14T08:18:44.499Z,9.28
2019-04-14T08:21:10.654Z,10.08
2019-04-14T08:23:36.794Z,11.03
2019-04-14T08:26:02.959Z,10.00
2019-04-14T08:28:29.165Z,9.68
2019-04-14T08:30:55.299Z,9.58
2019-04-14T08:33:21.437Z,8.70
2019-04-14T08:35:47.569Z,11.60
2019-04-14T08:38:13.740Z,27.93
2019-04-14T08:40:39.885Z,17.05
2019-04-14T08:43:10.469Z,33.18
2019-04-14T08:48:19.061Z,13.78
2019-04-14T08:50:47.031Z,11.03
2019-04-14T08:53:17.755Z,10.38
2019-04-14T08:56:03.854Z,13.32
2019-04-14T08:58:48.481Z,11.70
2019-04-14T09:09:37.535Z,13.05
2019-04-14T09:12:15.285Z,11.30
2019-04-14T09:14:33.954Z,10.95
2019-04-14T09:17:00.233Z,10.63
2019-04-14T09:19:26.262Z,11.12
2019-04-14T09:21:52.459Z,9.95
2019-04-14T09:24:18.502Z,12.30
2019-04-14T09:26:44.690Z,11.73
2019-04-14T09:29:10.730Z,12.13
2019-04-14T09:31:36.860Z,18.37
2019-04-14T09:34:02.997Z,19.00
2019-04-14T09:36:29.140Z,12.00
2019-04-14T09:38:55.219Z,12.85
2019-04-14T09:41:21.256Z,10.28
2019-04-14T09:43:47.455Z,11.00
2019-04-14T09:46:13.639Z,11.45
2019-04-14T09:48:39.786Z,12.58
2019-04-14T09:51:05.978Z,11.90
2019-04-14T09:53:32.031Z,11.10
2019-04-14T09:55:58.167Z,11.43
2019-04-14T09:58:24.226Z,11.63
2019-04-14T10:00:50.395Z,10.55
2019-04-14T10:03:16.655Z,11.15
2019-04-14T10:05:42.735Z,11.18
2019-04-14T10:08:08.873Z,11.22
2019-04-14T10:10:35.059Z,12.40
2019-04-14T10:13:01.313Z,11.80
2019-04-14T10:15:27.627Z,13.28
2019-04-14T10:17:53.935Z,12.15
2019-04-14T10:20:20.211Z,11.53
2019-04-14T10:22:46.480Z,11.45
2019-04-14T10:25:12.632Z,11.45
2019-04-14T10:27:38.928Z,10.65
2019-04-14T10:30:05.699Z,11.85
2019-04-14T10:32:31.963Z,11.25
2019-04-14T10:34:58.140Z,12.25
2019-04-14T10:37:24.389Z,13.65
2019-04-14T10:39:50.675Z,11.15
2019-04-14T10:42:17.990Z,12.88
2019-04-14T10:44:44.247Z,13.28
2019-04-14T10:47:10.519Z,12.10
2019-04-14T10:49:36.714Z,11.57
2019-04-14T10:52:03.174Z,11.93
2019-04-14T10:54:29.512Z,11.90
2019-04-14T10:56:55.661Z,11.00
2019-04-14T10:59:21.928Z,12.50
2019-04-14T11:01:48.177Z,12.58
2019-04-14T11:04:14.459Z,11.05
2019-04-14T11:06:45.271Z,11.88
2019-04-14T11:09:14.820Z,12.47
2019-04-14T11:11:41.201Z,12.33
2019-04-14T11:14:07.464Z,13.00
2019-04-14T11:16:33.632Z,12.53
2019-04-14T11:19:02.025Z,12.35
2019-04-14T11:21:41.796Z,13.57
2019-04-14T11:23:58.749Z,13.10
2019-04-14T11:26:26.914Z,12.60
2019-04-14T11:28:53.073Z,12.23
2019-04-14T11:31:21.146Z,11.22
2019-04-14T11:34:00.997Z,11.10
2019-04-14T11:39:16.982Z,10.58
2019-04-14T11:44:09.180Z,10.25
2019-04-14T11:46:35.331Z,9.13
2019-04-14T11:49:01.655Z,9.13
2019-04-14T11:51:27.942Z,9.20
2019-04-14T11:53:54.184Z,9.43
2019-04-14T11:56:20.493Z,10.10
2019-04-14T11:58:46.776Z,9.43
2019-04-14T12:01:23.598Z,8.65
2019-04-14T12:03:54.312Z,9.23
2019-04-14T12:06:22.470Z,8.78
2019-04-14T12:08:53.079Z,8.53
2019-04-14T12:11:19.356Z,8.25
2019-04-14T12:13:45.504Z,9.18
2019-04-14T12:16:11.666Z,8.53
2019-04-14T12:18:37.855Z,9.25
2019-04-14T12:21:04.051Z,8.68
2019-04-14T12:23:30.469Z,9.23
2019-04-14T12:26:05.278Z,10.53
2019-04-14T12:28:24.824Z,9.80
2019-04-14T12:30:53.247Z,9.35
2019-04-14T12:33:19.650Z,9.37
2019-04-14T12:35:45.864Z,8.60
2019-04-14T12:38:12.114Z,8.90
2019-04-14T12:40:38.832Z,7.22
2019-04-14T12:43:07.167Z,9.93
2019-04-14T12:45:52.024Z,9.58
2019-04-14T12:48:26.263Z,10.03
2019-04-14T12:51:00.565Z,9.75
2019-04-14T12:53:26.762Z,8.63
2019-04-14T12:55:52.946Z,10.35
2019-04-14T13:01:11.450Z,8.40
2019-04-14T13:03:38.301Z,7.58
2019-04-14T13:06:04.444Z,7.90
2019-04-14T13:08:31.491Z,8.48
2019-04-14T13:10:57.639Z,9.50
2019-04-14T13:13:23.792Z,8.40
2019-04-14T13:15:49.984Z,8.13
2019-04-14T13:18:16.251Z,9.10
2019-04-14T13:20:42.429Z,8.58
2019-04-14T13:23:08.561Z,9.13
2019-04-14T13:25:34.819Z,8.98
2019-04-14T13:28:00.965Z,8.60
2019-04-14T13:30:31.798Z,10.10
2019-04-14T13:32:58.061Z,10.43
2019-04-14T13:35:24.266Z,9.93
2019-04-14T13:37:50.444Z,9.63
2019-04-14T13:40:16.585Z,9.00
2019-04-14T13:42:42.736Z,9.23
2019-04-14T13:45:08.992Z,9.10
2019-04-14T13:47:35.176Z,9.05
2019-04-14T13:50:02.258Z,8.80
2019-04-14T13:52:30.822Z,9.18
2019-04-14T13:54:56.485Z,8.90
2019-04-14T13:57:22.638Z,9.65
2019-04-14T13:59:48.805Z,8.93
2019-04-14T14:02:15.014Z,11.48
2019-04-14T14:04:41.146Z,10.53
2019-04-14T14:07:10.917Z,9.80
2019-04-14T14:09:37.150Z,9.25
2019-04-14T14:12:17.242Z,8.75
2019-04-14T14:14:51.068Z,11.35
2019-04-14T14:17:21.674Z,10.60
2019-04-14T14:19:55.556Z,9.53
2019-04-14T14:25:26.686Z,11.15
2019-04-14T14:27:52.897Z,8.33
2019-04-14T14:30:20.384Z,8.20
2019-04-14T14:32:46.556Z,9.30
2019-04-14T14:35:12.731Z,7.95
2019-04-14T14:37:38.883Z,8.10
2019-04-14T14:40:05.574Z,8.70
2019-04-14T14:42:31.713Z,7.20
2019-04-14T14:45:05.620Z,9.18
2019-04-14T14:47:33.573Z,8.20
2019-04-14T14:50:10.275Z,8.65
2019-04-14T14:52:37.830Z,8.73
2019-04-14T14:55:07.472Z,7.33
2019-04-14T14:57:33.797Z,7.08
2019-04-14T15:00:00.015Z,7.30
2019-04-14T15:02:26.274Z,7.70
2019-04-14T15:04:55.217Z,6.80
2019-04-14T15:07:21.380Z,6.92
2019-04-14T15:09:47.745Z,6.75
2019-04-14T15:12:14.077Z,12.23
2019-04-14T15:14:40.388Z,7.85
2019-04-14T15:17:08.392Z,10.82
2019-04-14T15:19:34.926Z,13.10
2019-04-14T15:22:01.081Z,9.25
2019-04-14T15:24:27.340Z,10.38
2019-04-14T15:26:53.493Z,8.05
2019-04-14T15:29:19.779Z,9.73
2019-04-14T15:31:46.038Z,7.17
2019-04-14T15:34:12.339Z,9.08
2019-04-14T15:36:38.546Z,9.03
2019-04-14T15:39:06.498Z,8.08
2019-04-14T15:41:32.641Z,6.65
2019-04-14T15:43:58.623Z,7.28
2019-04-14T15:46:24.772Z,7.58
2019-04-14T15:48:51.026Z,7.35
2019-04-14T15:51:17.217Z,6.92
2019-04-14T15:53:43.358Z,10.23
2019-04-14T15:56:11.411Z,8.60
2019-04-14T15:58:42.265Z,7.05
2019-04-14T16:01:15.855Z,7.72
2019-04-14T16:03:46.932Z,7.75
2019-04-14T16:06:36.004Z,7.12
2019-04-14T16:09:21.556Z,6.40
2019-04-14T16:12:04.791Z,7.47
2019-04-14T16:14:47.814Z,8.80
2019-04-14T16:20:06.961Z,7.75
2019-04-14T16:22:33.695Z,6.78
2019-04-14T16:25:00.159Z,9.63
2019-04-14T16:30:23.948Z,7.87
2019-04-14T16:33:03.895Z,7.87
2019-04-14T16:35:31.926Z,8.53
2019-04-14T16:37:58.524Z,10.58
2019-04-14T16:40:24.796Z,13.25
2019-04-14T16:42:52.389Z,10.90
2019-04-14T16:45:18.705Z,10.98
2019-04-14T16:47:44.894Z,14.73
2019-04-14T16:50:11.633Z,7.47
2019-04-14T16:55:30.093Z,12.98
2019-04-14T16:57:58.436Z,10.18
2019-04-14T17:00:26.504Z,10.08
2019-04-14T17:02:54.532Z,12.00
2019-04-14T17:05:20.666Z,13.83
2019-04-14T17:07:46.994Z,11.65
2019-04-14T17:10:13.270Z,14.28
2019-04-14T17:12:39.599Z,12.07
2019-04-14T17:15:26.001Z,7.78
2019-04-14T17:18:06.282Z,12.05
2019-04-14T17:20:51.226Z,10.30
2019-04-14T17:23:19.287Z,7.75
2019-04-14T17:25:49.926Z,11.95
2019-04-14T17:28:32.875Z,10.45
2019-04-14T17:31:01.009Z,36.42
2019-04-14T17:33:37.881Z,43.33
2019-04-14T17:36:08.648Z,24.12
2019-04-14T17:38:39.282Z,20.27
2019-04-14T17:41:13.836Z,26.35
2019-04-14T17:43:41.906Z,28.07
2019-04-14T17:46:27.823Z,27.25
2019-04-14T17:49:04.054Z,29.42
2019-04-14T17:51:32.085Z,18.23
2019-04-14T17:54:00.130Z,18.37
2019-04-14T17:56:30.828Z,17.42
2019-04-14T18:01:48.396Z,9.78
2019-04-14T18:04:16.367Z,9.98
2019-04-14T18:06:47.449Z,7.60
2019-04-14T18:09:24.147Z,12.95
2019-04-14T18:11:54.734Z,12.95
2019-04-14T18:14:25.729Z,13.83
2019-04-14T18:17:10.478Z,8.88
2019-04-14T18:19:55.376Z,10.15
2019-04-14T18:22:21.515Z,12.23
2019-04-14T18:24:47.686Z,20.10
2019-04-14T18:27:13.835Z,17.27
2019-04-14T18:29:58.675Z,17.23
2019-04-14T18:32:29.373Z,26.20
2019-04-14T18:34:57.321Z,24.52
2019-04-14T18:40:17.437Z,20.88
2019-04-14T18:42:45.882Z,16.37
2019-04-14T18:45:20.012Z,65.50
2019-04-14T18:47:47.994Z,38.40
2019-04-14T18:50:23.772Z,26.82
2019-04-14T18:52:57.871Z,50.60
2019-04-14T18:55:28.462Z,40.38
2019-04-14T18:58:05.164Z,53.23
2019-04-14T19:00:50.130Z,22.75
2019-04-14T19:03:16.269Z,61.13
2019-04-14T19:05:42.473Z,27.07
2019-04-14T19:08:08.627Z,26.95
2019-04-14T19:10:34.912Z,18.23
2019-04-14T19:13:02.849Z,14.45
2019-04-14T19:15:36.632Z,16.20
2019-04-14T19:18:07.692Z,24.40
2019-04-14T19:20:33.868Z,22.37
2019-04-14T19:22:59.917Z,45.55
2019-04-14T19:25:25.965Z,25.10
2019-04-14T19:27:52.031Z,19.92
2019-04-14T19:30:18.341Z,25.23
2019-04-14T19:32:44.481Z,31.20
2019-04-14T19:35:10.659Z,35.10
2019-04-14T19:37:36.803Z,24.18
2019-04-14T19:40:04.864Z,29.63
2019-04-14T19:42:31.023Z,20.65
2019-04-14T19:44:57.158Z,19.17
2019-04-14T19:47:23.337Z,25.77
2019-04-14T19:49:49.373Z,24.80
2019-04-14T19:52:15.537Z,38.83
2019-04-14T19:54:41.727Z,32.95
2019-04-14T19:57:08.005Z,24.67
2019-04-14T19:59:34.212Z,33.40
2019-04-14T20:02:00.352Z,28.57
2019-04-14T20:04:26.637Z,29.48
2019-04-14T20:06:52.777Z,55.15
2019-04-14T20:09:18.907Z,43.45
2019-04-14T20:11:45.170Z,36.35
2019-04-14T20:14:11.223Z,25.62
2019-04-14T20:16:39.292Z,37.75
2019-04-14T20:19:13.395Z,46.15
2019-04-14T20:21:44.603Z,30.60
2019-04-14T20:24:21.723Z,32.45
2019-04-14T20:26:49.832Z,27.42
2019-04-14T20:29:17.770Z,27.13
2019-04-14T20:31:45.820Z,46.50
2019-04-14T20:34:11.885Z,48.40
2019-04-14T20:36:38.041Z,38.38
2019-04-14T20:39:07.235Z,61.75
2019-04-14T20:41:33.418Z,25.77
2019-04-14T20:44:01.897Z,29.05
2019-04-14T20:46:29.423Z,28.27
2019-04-14T20:48:55.702Z,52.35
2019-04-14T20:51:21.895Z,63.63
2019-04-14T20:53:47.840Z,46.65
2019-04-14T20:56:14.100Z,28.35
2019-04-14T20:58:40.269Z,27.65
2019-04-14T21:01:08.147Z,57.48
2019-04-14T21:03:47.996Z,42.58
2019-04-14T21:09:29.116Z,20.48
2019-04-14T21:12:00.049Z,23.77
2019-04-14T21:14:28.099Z,22.98
2019-04-14T21:17:11.041Z,19.42
2019-04-14T21:19:39.082Z,22.80
2019-04-14T21:22:07.125Z,29.85
2019-04-14T21:24:47.266Z,26.55
2019-04-14T21:27:27.662Z,26.77
2019-04-14T21:30:04.470Z,17.42
2019-04-14T21:32:47.708Z,15.45
2019-04-14T21:35:24.395Z,28.98
2019-04-14T21:37:58.241Z,24.67
2019-04-14T21:40:26.336Z,14.30
2019-04-14T21:42:52.486Z,12.55
2019-04-14T21:45:18.637Z,13.80
2019-04-14T21:47:44.829Z,16.40
2019-04-14T21:50:12.282Z,26.45
2019-04-14T21:52:40.360Z,17.07
2019-04-14T21:55:06.839Z,20.70
2019-04-14T21:57:51.533Z,11.60
2019-04-14T22:03:31.704Z,11.57
2019-04-14T22:06:02.772Z,11.30
2019-04-14T22:08:30.809Z,10.08
2019-04-14T22:10:58.923Z,9.43
2019-04-14T22:13:25.175Z,9.03
2019-04-14T22:15:51.726Z,9.13
2019-04-14T22:18:18.494Z,15.63
2019-04-14T22:20:44.541Z,37.48
2019-04-14T22:23:12.620Z,12.35
2019-04-14T22:25:38.767Z,12.15
2019-04-14T22:28:04.953Z,13.32
2019-04-14T22:30:31.096Z,10.30
2019-04-14T22:32:57.251Z,29.15
2019-04-14T22:35:23.399Z,26.70
2019-04-14T22:37:49.573Z,19.57
2019-04-14T22:40:15.826Z,34.55
2019-04-14T22:42:42.045Z,32.78
2019-04-14T22:45:10.214Z,24.02
2019-04-14T22:47:36.348Z,31.90
2019-04-14T22:50:03.907Z,21.95
2019-04-14T22:52:29.991Z,20.08
2019-04-14T22:54:56.168Z,23.35
2019-04-14T22:57:22.327Z,16.67
2019-04-14T22:59:48.540Z,21.82
2019-04-14T23:02:22.119Z,31.85
2019-04-14T23:04:50.233Z,27.37
2019-04-14T23:07:18.276Z,44.42
2019-04-14T23:09:46.326Z,45.78
2019-04-14T23:15:03.558Z,45.73
2019-04-14T23:17:37.722Z,37.05
2019-04-14T23:23:01.839Z,36.25
2019-04-14T23:25:27.979Z,34.53
2019-04-14T23:27:54.135Z,25.92
2019-04-14T23:30:20.385Z,19.92
2019-04-14T23:32:46.523Z,40.75
2019-04-14T23:35:12.598Z,20.77
2019-04-14T23:37:38.753Z,13.75
2019-04-14T23:40:05.849Z,19.67
2019-04-14T23:42:32.092Z,15.35
2019-04-14T23:44:58.237Z,16.57
2019-04-14T23:47:24.377Z,43.83
2019-04-14T23:49:50.460Z,71.42
2019-04-14T23:52:16.610Z,23.67
2019-04-14T23:54:42.744Z,35.75
2019-04-14T23:57:08.913Z,24.40
2019-04-14T23:59:35.045Z,17.27
